Time;durP1;ratioP1;P1;durP2;ratioP2;P2;SDS_P1;SDS_P2;PMS_P1;PMS_P2;Temp;Humidity;BMP_temperature;BMP_pressure;BME280_temperature;BME280_humidity;BME280_pressure;Samples;Min_cycle;Max_cycle;Signal;HPM_P1;HPM_P2
2023/10/05 00:01:05;;;;;;;4.07;0.93;;;20.20;72.60;;;;;;6280169;22;20015;-66
2023/10/05 00:03:31;;;;;;;3.20;0.80;;;20.20;72.60;;;;;;6279847;22;20023;-66
2023/10/05 00:06:23;;;;;;;2.78;0.80;;;20.20;72.60;;;;;;6279121;22;20011;-66
2023/10/05 00:08:49;;;;;;;3.75;1.00;;;20.10;72.60;;;;;;6279857;22;20102;-66
2023/10/05 00:11:23;;;;;;;2.78;1.08;;;20.20;72.60;;;;;;6279434;22;20427;-66
2023/10/05 00:13:52;;;;;;;3.58;0.80;;;20.20;72.60;;;;;;6306824;22;20024;-65
2023/10/05 00:16:23;;;;;;;4.22;1.00;;;20.10;72.50;;;;;;6278446;22;20019;-66
2023/10/05 00:18:49;;;;;;;3.53;0.88;;;20.10;72.50;;;;;;6279346;22;20090;-66
2023/10/05 00:21:19;;;;;;;3.13;0.80;;;20.10;72.50;;;;;;6280345;22;20043;-66
2023/10/05 00:23:57;;;;;;;2.88;0.98;;;20.10;72.50;;;;;;6308118;22;20019;-66
2023/10/05 00:26:28;;;;;;;1.67;0.65;;;20.10;72.50;;;;;;6279187;22;20069;-66
2023/10/05 00:31:41;;;;;;;2.80;0.90;;;20.10;72.50;;;;;;6280600;22;20027;-66
2023/10/05 00:34:21;;;;;;;3.95;1.10;;;20.10;72.50;;;;;;6279483;22;20015;-66
2023/10/05 00:36:50;;;;;;;2.08;0.65;;;20.10;73.10;;;;;;6280376;22;20343;-66
2023/10/05 00:39:19;;;;;;;3.55;0.82;;;20.10;72.50;;;;;;6280005;22;20069;-66
2023/10/05 00:42:08;;;;;;;3.60;0.73;;;20.10;72.50;;;;;;6279810;22;20062;-66
2023/10/05 00:44:35;;;;;;;3.35;0.68;;;20.10;72.50;;;;;;6278932;22;20136;-66
2023/10/05 00:47:04;;;;;;;2.92;1.02;;;20.10;72.50;;;;;;6279127;22;20133;-66
2023/10/05 00:49:31;;;;;;;;;;;20.10;72.50;;;;;;6280387;22;20076;-66
2023/10/05 00:52:19;;;;;;;4.85;0.90;;;20.10;72.50;;;;;;6280123;22;20377;-66
2023/10/05 00:54:49;;;;;;;2.50;0.73;;;20.10;72.50;;;;;;6278420;22;20343;-66
2023/10/05 00:57:15;;;;;;;2.53;0.80;;;20.10;72.50;;;;;;6279947;22;20065;-66
2023/10/05 00:59:46;;;;;;;2.28;0.90;;;20.10;72.50;;;;;;6280351;22;20019;-66
2023/10/05 01:02:16;;;;;;;2.75;0.70;;;20.10;72.50;;;;;;6306624;22;20056;-66
2023/10/05 01:07:18;;;;;;;2.08;0.63;;;20.10;72.50;;;;;;6279775;22;20016;-66
2023/10/05 01:14:53;;;;;;;2.67;0.80;;;20.10;72.60;;;;;;6306307;22;20023;-66
2023/10/05 01:17:25;;;;;;;2.55;0.65;;;20.00;72.50;;;;;;6279627;22;20011;-66
2023/10/05 01:19:58;;;;;;;2.47;0.60;;;20.00;72.50;;;;;;6279837;22;20015;-66
2023/10/05 01:22:33;;;;;;;2.03;0.63;;;20.00;72.50;;;;;;6278731;22;20019;-66
2023/10/05 01:25:04;;;;;;;2.10;0.77;;;20.00;72.50;;;;;;6280043;22;20069;-66
2023/10/05 01:27:33;;;;;;;2.22;0.80;;;20.00;72.50;;;;;;6278017;22;20455;-66
2023/10/05 01:29:59;;;;;;;2.97;0.77;;;20.00;72.50;;;;;;6278626;22;20015;-66
2023/10/05 01:32:25;;;;;;;3.25;0.90;;;20.00;72.50;;;;;;6279663;22;20133;-66
2023/10/05 01:34:50;;;;;;;2.40;0.70;;;20.00;72.50;;;;;;6279778;22;20047;-66
2023/10/05 01:37:23;;;;;;;2.55;0.85;;;20.00;72.50;;;;;;6278302;22;20055;-66
2023/10/05 01:39:49;;;;;;;3.63;0.70;;;20.00;72.40;;;;;;6279589;22;20027;-66
2023/10/05 01:42:16;;;;;;;2.05;0.70;;;20.00;72.40;;;;;;6279417;22;20019;-66
2023/10/05 01:44:46;;;;;;;1.70;0.75;;;20.00;72.40;;;;;;6278486;22;20015;-66
2023/10/05 01:47:15;;;;;;;2.50;1.08;;;20.00;72.50;;;;;;6279690;22;20094;-66
2023/10/05 01:49:41;;;;;;;3.03;0.80;;;20.00;72.40;;;;;;6279314;22;20014;-66
2023/10/05 01:52:07;;;;;;;2.70;0.80;;;20.00;72.40;;;;;;6279416;22;20024;-66
2023/10/05 01:54:34;;;;;;;2.70;0.93;;;20.00;72.40;;;;;;6306722;22;20196;-66
2023/10/05 01:57:03;;;;;;;3.50;1.05;;;20.00;72.40;;;;;;6278519;22;20046;-67
2023/10/05 01:59:33;;;;;;;1.85;0.70;;;20.00;72.40;;;;;;6279152;22;20022;-66
2023/10/05 02:02:04;;;;;;;1.55;0.57;;;20.00;72.40;;;;;;6279284;22;20011;-66
2023/10/05 02:04:31;;;;;;;2.35;0.73;;;20.00;72.40;;;;;;6278094;22;20015;-66
2023/10/05 02:06:56;;;;;;;2.75;0.75;;;20.00;72.40;;;;;;6279153;22;20019;-66
2023/10/05 02:09:22;;;;;;;3.72;0.77;;;20.00;72.40;;;;;;6279246;22;20410;-66
2023/10/05 02:11:48;;;;;;;3.53;0.70;;;20.00;72.40;;;;;;6278571;22;20140;-66
2023/10/05 02:14:16;;;;;;;2.88;0.60;;;19.90;72.30;;;;;;6279347;22;20447;-66
2023/10/05 02:16:51;;;;;;;2.00;0.68;;;20.00;72.40;;;;;;6279490;22;20331;-66
2023/10/05 02:19:16;;;;;;;2.08;0.60;;;20.00;72.40;;;;;;6278222;22;20019;-66
2023/10/05 02:21:46;;;;;;;3.08;0.77;;;20.00;72.40;;;;;;6279709;22;20028;-66
2023/10/05 02:24:17;;;;;;;2.05;0.70;;;19.90;72.40;;;;;;6279192;22;20019;-66
2023/10/05 02:29:24;;;;;;;2.88;0.63;;;19.90;72.40;;;;;;6278816;22;20406;-66
2023/10/05 02:32:02;;;;;;;1.40;0.70;;;19.90;72.30;;;;;;6280814;22;20019;-67
2023/10/05 02:37:36;;;;;;;2.45;0.82;;;19.90;72.40;;;;;;6189369;23;20020;-66
2023/10/05 02:40:08;;;;;;;2.38;0.70;;;19.90;72.40;;;;;;6261016;22;20050;-66
2023/10/05 02:42:35;;;;;;;2.75;1.27;;;19.90;72.40;;;;;;6281453;22;20175;-66
2023/10/05 02:45:03;;;;;;;2.80;0.75;;;19.90;72.40;;;;;;6281439;22;20038;-66
2023/10/05 02:47:29;;;;;;;;;;;19.90;72.40;;;;;;6280781;22;20011;-66
2023/10/05 02:49:56;;;;;;;3.13;0.70;;;19.90;72.40;;;;;;6281416;22;19989;-66
2023/10/05 02:52:21;;;;;;;2.30;0.75;;;19.90;72.50;;;;;;6281067;22;20070;-67
2023/10/05 02:54:47;;;;;;;2.08;0.73;;;19.90;72.50;;;;;;6280468;22;20050;-67
2023/10/05 02:57:14;;;;;;;2.65;0.70;;;19.90;72.40;;;;;;6280935;22;20011;-66
2023/10/05 02:59:40;;;;;;;3.40;0.82;;;19.90;72.50;;;;;;6281097;22;20019;-66
2023/10/05 03:02:07;;;;;;;3.10;0.68;;;19.90;72.40;;;;;;6280351;22;20102;-66
2023/10/05 03:04:46;;;;;;;2.97;0.60;;;19.90;72.50;;;;;;6281313;22;20030;-66
2023/10/05 03:07:16;;;;;;;1.80;0.65;;;19.90;72.50;;;;;;6280029;22;20133;-66
2023/10/05 03:09:42;;;;;;;2.35;1.00;;;19.90;72.50;;;;;;6281250;22;20019;-66
2023/10/05 03:12:09;;;;;;;1.67;0.57;;;19.90;72.40;;;;;;6281039;22;20023;-67
2023/10/05 03:14:35;;;;;;;3.25;0.90;;;19.90;72.40;;;;;;6280187;22;20027;-66
2023/10/05 03:17:07;;;;;;;1.63;0.60;;;19.90;72.40;;;;;;6308772;22;20019;-66
2023/10/05 03:19:39;;;;;;;2.08;0.80;;;19.90;72.40;;;;;;6281266;22;20074;-66
2023/10/05 03:22:05;;;;;;;2.22;0.98;;;19.90;72.40;;;;;;6307705;22;20390;-66
2023/10/05 03:24:33;;;;;;;2.63;0.70;;;19.90;72.40;;;;;;6308013;22;20435;-66
2023/10/05 03:27:02;;;;;;;1.77;0.70;;;19.90;72.40;;;;;;6281010;22;20026;-66
2023/10/05 03:29:28;;;;;;;3.28;0.73;;;19.90;72.40;;;;;;6278616;22;20011;-66
2023/10/05 03:31:55;;;;;;;2.58;0.60;;;19.90;72.40;;;;;;6281109;22;20561;-66
2023/10/05 03:34:25;;;;;;;2.40;0.70;;;19.90;72.40;;;;;;6280521;22;20026;-67
2023/10/05 03:36:50;;;;;;;2.92;0.95;;;19.90;72.40;;;;;;6279932;22;20042;-66
2023/10/05 03:39:17;;;;;;;2.92;0.70;;;19.90;72.40;;;;;;6280542;22;20015;-66
2023/10/05 03:41:43;;;;;;;1.73;0.55;;;19.90;72.30;;;;;;6280995;22;20023;-66
2023/10/05 03:44:15;;;;;;;1.50;0.63;;;19.90;72.30;;;;;;6279023;22;20374;-66
2023/10/05 03:46:47;;;;;;;1.98;0.60;;;19.90;72.30;;;;;;6281018;22;20046;-66
2023/10/05 03:49:15;;;;;;;2.03;0.60;;;19.90;72.30;;;;;;6308277;22;20145;-67
2023/10/05 03:51:50;;;;;;;1.42;0.60;;;19.90;72.30;;;;;;6280708;22;20016;-66
2023/10/05 03:54:23;;;;;;;2.22;0.55;;;20.00;72.30;;;;;;6280643;22;20069;-67
2023/10/05 03:56:50;;;;;;;3.30;0.68;;;20.00;72.40;;;;;;6307372;22;20518;-67
2023/10/05 03:59:18;;;;;;;2.67;0.80;;;20.00;72.30;;;;;;6280240;22;20050;-67
2023/10/05 04:01:48;;;;;;;3.33;0.80;;;20.00;72.30;;;;;;6279902;22;20050;-66
2023/10/05 04:04:15;;;;;;;3.13;0.90;;;20.00;72.30;;;;;;6306363;22;20512;-67
2023/10/05 04:06:42;;;;;;;3.35;0.70;;;20.00;72.30;;;;;;6279885;22;20016;-66
2023/10/05 04:09:15;;;;;;;2.63;0.68;;;20.00;72.30;;;;;;6280509;22;20347;-67
2023/10/05 04:11:41;;;;;;;3.53;0.85;;;20.00;72.30;;;;;;6279773;22;20019;-66
2023/10/05 04:14:09;;;;;;;1.92;0.80;;;20.00;72.30;;;;;;6307471;22;20024;-66
2023/10/05 04:16:34;;;;;;;1.70;0.60;;;20.00;72.30;;;;;;6278799;22;20094;-66
2023/10/05 04:19:04;;;;;;;2.72;0.70;;;20.10;72.30;;;;;;6277113;22;20046;-67
2023/10/05 04:21:30;;;;;;;3.50;0.63;;;20.10;72.30;;;;;;6277965;22;20090;-66
2023/10/05 04:23:59;;;;;;;2.90;0.80;;;20.10;72.30;;;;;;6279495;22;20015;-66
2023/10/05 04:26:37;;;;;;;3.00;0.80;;;20.10;72.30;;;;;;6277316;22;20093;-66
2023/10/05 04:29:08;;;;;;;3.17;0.80;;;20.10;72.30;;;;;;6279649;22;20082;-66
2023/10/05 04:31:36;;;;;;;2.20;0.70;;;20.10;72.30;;;;;;6306941;22;20473;-66
2023/10/05 04:34:05;;;;;;;2.70;0.73;;;20.10;72.30;;;;;;6280560;22;20089;-66
2023/10/05 04:36:30;;;;;;;2.78;0.90;;;20.10;72.30;;;;;;6307784;22;20082;-66
2023/10/05 04:38:56;;;;;;;1.33;0.70;;;20.10;72.30;;;;;;6306448;22;20659;-66
2023/10/05 04:41:28;;;;;;;2.75;1.00;;;20.10;72.30;;;;;;6307418;22;20022;-66
2023/10/05 04:43:55;;;;;;;1.73;0.50;;;20.10;72.30;;;;;;6280180;22;20042;-66
2023/10/05 04:46:21;;;;;;;2.45;0.65;;;20.10;72.40;;;;;;6306647;22;20019;-66
2023/10/05 04:48:55;;;;;;;2.42;0.70;;;20.10;72.40;;;;;;6308015;22;20011;-66
2023/10/05 04:51:26;;;;;;;3.03;0.70;;;20.10;72.40;;;;;;6279926;22;20019;-66
2023/10/05 04:53:54;;;;;;;2.15;0.70;;;20.10;72.40;;;;;;6279026;22;20083;-66
2023/10/05 05:06:59;;;;;;;1.70;0.55;;;20.10;72.50;;;;;;6274133;22;20024;-66
2023/10/05 05:09:39;;;;;;;2.42;0.60;;;20.10;72.50;;;;;;6274355;22;20023;-66
2023/10/05 05:12:09;;;;;;;4.38;0.70;;;20.10;72.50;;;;;;6276463;22;20066;-66
2023/10/05 05:14:41;;;;;;;1.80;0.60;;;20.10;72.50;;;;;;6273506;22;20451;-66
2023/10/05 05:17:07;;;;;;;2.35;0.65;;;20.10;72.50;;;;;;6274641;22;20020;-66
2023/10/05 05:19:36;;;;;;;2.33;0.50;;;20.10;72.50;;;;;;6276832;22;20034;-66
2023/10/05 05:22:08;;;;;;;3.03;0.60;;;20.10;72.50;;;;;;6273762;22;20008;-66
2023/10/05 05:24:34;;;;;;;1.35;0.60;;;20.10;72.50;;;;;;6275053;22;20023;-66
2023/10/05 05:29:44;;;;;;;2.40;0.70;;;20.10;72.60;;;;;;6275584;22;20103;-66
2023/10/05 05:32:10;;;;;;;3.22;0.70;;;20.00;72.50;;;;;;6274513;22;20019;-66
2023/10/05 05:34:42;;;;;;;2.25;0.73;;;20.10;72.60;;;;;;6274652;22;20042;-66
2023/10/05 05:37:11;;;;;;;3.38;0.63;;;20.10;72.60;;;;;;6273400;22;20020;-66
2023/10/05 05:39:40;;;;;;;2.38;0.88;;;20.00;72.60;;;;;;6276054;22;20021;-66
2023/10/05 05:42:07;;;;;;;1.60;0.50;;;20.10;72.60;;;;;;6273756;22;20069;-66
2023/10/05 05:44:34;;;;;;;2.78;0.75;;;20.10;72.60;;;;;;6274396;22;20015;-62
2023/10/05 05:47:09;;;;;;;3.67;0.63;;;20.10;72.60;;;;;;6276457;22;20011;-65
2023/10/05 05:49:38;;;;;;;3.35;0.88;;;20.10;72.60;;;;;;6273456;22;20019;-65
2023/10/05 05:52:05;;;;;;;2.13;0.73;;;20.00;72.60;;;;;;6274564;22;20019;-65
2023/10/05 05:54:32;;;;;;;4.47;0.70;;;20.10;72.60;;;;;;6276060;22;20027;-65
2023/10/05 05:56:57;;;;;;;2.40;0.80;;;20.00;72.50;;;;;;6274949;22;20340;-65
2023/10/05 05:59:23;;;;;;;4.15;0.88;;;20.00;72.60;;;;;;6273954;22;20435;-65
2023/10/05 06:01:50;;;;;;;4.32;0.98;;;20.00;72.50;;;;;;6274318;22;20065;-65
2023/10/05 06:04:16;;;;;;;3.58;0.63;;;20.10;72.60;;;;;;6274565;22;20019;-65
2023/10/05 06:06:43;;;;;;;3.67;0.80;;;20.10;72.60;;;;;;6274340;22;20023;-65
2023/10/05 06:09:11;;;;;;;5.80;1.25;;;20.10;72.60;;;;;;6276081;22;20065;-65
2023/10/05 06:11:37;;;;;;;5.37;0.70;;;20.10;72.70;;;;;;6273472;22;20027;-65
2023/10/05 06:14:05;;;;;;;4.35;0.95;;;20.10;72.70;;;;;;6274330;22;20320;-65
2023/10/05 06:16:33;;;;;;;3.83;0.65;;;20.00;72.60;;;;;;6274125;22;20336;-65
2023/10/05 06:18:59;;;;;;;4.95;0.82;;;20.10;72.70;;;;;;6273243;22;20020;-65
2023/10/05 06:21:25;;;;;;;4.50;0.98;;;20.10;72.70;;;;;;6273985;22;20073;-65
2023/10/05 06:23:51;;;;;;;2.72;0.80;;;20.10;72.70;;;;;;6274448;22;20051;-65
2023/10/05 06:26:17;;;;;;;4.88;0.90;;;20.10;72.80;;;;;;6272195;22;20020;-65
2023/10/05 06:28:42;;;;;;;4.95;0.77;;;20.10;72.80;;;;;;6270756;22;20020;-66
2023/10/05 06:31:12;;;;;;;5.30;1.10;;;20.10;72.80;;;;;;6272751;22;20444;-66
2023/10/05 06:33:41;;;;;;;4.85;0.98;;;20.10;72.90;;;;;;6272869;22;20073;-64
2023/10/05 06:36:07;;;;;;;6.18;0.90;;;20.10;72.90;;;;;;6273243;22;20375;-66
2023/10/05 06:38:33;;;;;;;5.07;1.02;;;20.10;72.90;;;;;;6273138;22;20436;-65
2023/10/05 06:40:58;;;;;;;6.43;1.25;;;20.10;72.80;;;;;;6273482;22;20043;-64
2023/10/05 06:43:26;;;;;;;3.33;0.80;;;20.10;72.90;;;;;;6272455;22;20054;-63
2023/10/05 06:45:52;;;;;;;4.88;0.90;;;20.10;72.90;;;;;;6275005;22;20012;-65
2023/10/05 06:48:18;;;;;;;4.63;0.85;;;20.10;72.90;;;;;;6275600;22;20050;-65
2023/10/05 06:50:43;;;;;;;3.33;0.88;;;20.10;72.80;;;;;;6273842;22;20509;-63
2023/10/05 06:53:11;;;;;;;7.20;1.17;;;20.10;72.70;;;;;;6274807;22;20459;-63
2023/10/05 06:55:36;;;;;;;4.32;1.02;;;20.10;72.80;;;;;;6273992;22;20019;-64
2023/10/05 06:58:03;;;;;;;5.32;1.67;;;20.10;72.80;;;;;;6274178;22;20022;-64
2023/10/05 07:00:29;;;;;;;5.05;1.02;;;20.10;72.80;;;;;;6272442;22;20030;-63
2023/10/05 07:02:58;;;;;;;7.20;0.80;;;20.10;72.90;;;;;;6274005;22;20024;-64
2023/10/05 07:05:24;;;;;;;4.47;1.00;;;20.10;72.80;;;;;;6272877;22;20016;-66
2023/10/05 07:07:49;;;;;;;4.65;1.30;;;20.10;72.80;;;;;;6273129;22;20016;-66
2023/10/05 07:10:15;;;;;;;4.15;0.95;;;20.20;72.90;;;;;;6273258;22;20098;-66
2023/10/05 07:12:42;;;;;;;4.72;0.98;;;20.10;72.80;;;;;;6274168;22;20016;-65
2023/10/05 07:15:10;;;;;;;4.10;0.88;;;20.20;72.90;;;;;;6274238;22;20074;-67
2023/10/05 07:17:37;;;;;;;4.30;1.10;;;20.20;73.00;;;;;;6274714;22;20059;-66
2023/10/05 07:20:11;;;;;;;2.42;0.95;;;20.20;73.00;;;;;;6276020;22;20026;-65
2023/10/05 07:22:37;;;;;;;4.93;0.95;;;20.20;73.00;;;;;;6247494;22;20577;-66
2023/10/05 07:25:04;;;;;;;5.70;1.17;;;20.20;73.00;;;;;;6277583;22;20023;-66
2023/10/05 07:27:30;;;;;;;3.08;0.90;;;20.20;73.00;;;;;;6273709;22;20022;-66
2023/10/05 07:29:56;;;;;;;6.15;1.00;;;20.20;73.70;;;;;;6275604;22;20016;-66
2023/10/05 07:32:21;;;;;;;3.33;1.02;;;20.30;73.10;;;;;;6274728;22;20023;-66
2023/10/05 07:34:47;;;;;;;3.90;1.00;;;20.30;73.10;;;;;;6274233;22;20007;-65
2023/10/05 07:37:12;;;;;;;4.00;1.13;;;20.30;73.10;;;;;;6275021;22;20020;-65
2023/10/05 07:39:40;;;;;;;3.88;0.95;;;20.30;73.10;;;;;;6275566;22;20140;-66
2023/10/05 07:42:08;;;;;;;6.78;1.55;;;20.30;73.00;;;;;;6274362;22;20511;-65
2023/10/05 07:44:37;;;;;;;4.90;1.00;;;20.30;73.00;;;;;;6277328;22;20436;-66
2023/10/05 07:47:04;;;;;;;6.10;1.05;;;20.40;73.10;;;;;;6275203;22;20262;-65
2023/10/05 07:49:29;;;;;;;5.15;0.90;;;20.40;73.10;;;;;;6274382;22;20443;-65
2023/10/05 07:51:55;;;;;;;5.57;0.90;;;20.40;73.10;;;;;;6275427;22;20020;-66
2023/10/05 07:54:20;;;;;;;5.90;1.27;;;20.40;73.00;;;;;;6274645;22;20023;-66
2023/10/05 07:56:46;;;;;;;4.40;1.08;;;20.40;73.00;;;;;;6274201;22;20023;-65
2023/10/05 07:59:14;;;;;;;2.95;1.00;;;20.40;72.90;;;;;;6274734;22;20024;-65
2023/10/05 08:01:40;;;;;;;4.63;1.25;;;20.40;72.80;;;;;;6273950;22;20020;-67
2023/10/05 08:04:06;;;;;;;3.45;1.00;;;20.50;73.00;;;;;;6274073;22;20055;-66
2023/10/05 08:06:32;;;;;;;5.95;1.23;;;20.50;73.00;;;;;;6274741;22;20313;-66
2023/10/05 08:08:57;;;;;;;4.95;1.17;;;20.50;72.80;;;;;;6275209;22;20026;-65
2023/10/05 08:11:23;;;;;;;2.78;0.80;;;20.50;72.80;;;;;;6273586;22;20459;-66
2023/10/05 08:13:48;;;;;;;4.13;1.20;;;20.50;73.40;;;;;;6274031;22;20436;-66
2023/10/05 08:16:14;;;;;;;4.07;1.20;;;20.50;72.70;;;;;;6274514;22;20034;-66
2023/10/05 08:18:41;;;;;;;5.53;1.10;;;20.50;72.80;;;;;;6273261;22;20466;-65
2023/10/05 08:21:07;;;;;;;3.80;1.10;;;20.50;72.70;;;;;;6275053;22;20020;-66
2023/10/05 08:23:33;;;;;;;5.45;1.17;;;20.50;72.70;;;;;;6273918;22;20011;-66
2023/10/05 08:25:59;;;;;;;6.30;1.20;;;20.50;72.70;;;;;;6273622;22;20348;-65
2023/10/05 08:28:25;;;;;;;5.00;1.15;;;20.50;72.70;;;;;;6273754;22;20439;-66
2023/10/05 08:31:06;;;;;;;4.47;1.30;;;20.60;72.70;;;;;;6271140;22;20016;-66
2023/10/05 08:33:35;;;;;;;7.20;1.30;;;20.60;72.70;;;;;;6273985;22;20020;-66
2023/10/05 08:36:06;;;;;;;3.35;0.90;;;20.60;72.70;;;;;;6274086;22;20015;-66
2023/10/05 08:38:35;;;;;;;3.83;0.80;;;20.60;72.60;;;;;;6246719;22;20027;-65
2023/10/05 08:41:07;;;;;;;5.93;1.60;;;20.60;72.70;;;;;;6273410;22;20090;-64
2023/10/05 08:43:35;;;;;;;5.78;1.35;;;20.60;72.70;;;;;;6250358;22;20452;-64
2023/10/05 08:46:03;;;;;;;3.50;0.95;;;20.60;72.70;;;;;;6272813;22;20313;-65
2023/10/05 08:48:35;;;;;;;3.78;1.17;;;20.60;72.70;;;;;;6224101;22;20020;-65
2023/10/05 08:51:06;;;;;;;4.22;0.98;;;20.60;72.70;;;;;;6250021;22;20065;-65
2023/10/05 08:53:32;;;;;;;5.53;1.10;;;20.60;72.70;;;;;;6275377;22;20019;-64
2023/10/05 08:56:00;;;;;;;4.22;1.10;;;20.60;72.80;;;;;;6274765;22;20062;-64
2023/10/05 08:58:28;;;;;;;3.85;1.15;;;20.60;73.40;;;;;;6274784;22;20023;-64
2023/10/05 09:00:57;;;;;;;4.35;1.13;;;20.60;72.80;;;;;;6272792;22;20015;-66
2023/10/05 09:03:35;;;;;;;5.75;1.33;;;20.70;72.80;;;;;;6275784;22;20043;-65
2023/10/05 09:06:13;;;;;;;2.63;0.90;;;20.60;72.70;;;;;;6275372;22;20026;-65
2023/10/05 09:08:44;;;;;;;4.72;1.63;;;20.70;72.70;;;;;;6274207;22;20050;-65
2023/10/05 09:11:09;;;;;;;4.10;1.35;;;20.70;72.70;;;;;;6273884;22;20019;-65
2023/10/05 09:13:45;;;;;;;6.40;1.35;;;20.60;72.70;;;;;;6273317;22;20118;-65
2023/10/05 09:16:15;;;;;;;4.03;1.10;;;20.70;72.80;;;;;;6273933;22;20027;-66
2023/10/05 09:18:49;;;;;;;4.97;1.05;;;20.70;72.70;;;;;;6276621;22;20020;-65
2023/10/05 09:21:19;;;;;;;5.97;1.60;;;20.70;72.60;;;;;;6272515;22;20394;-65
2023/10/05 09:23:45;;;;;;;5.95;1.33;;;20.70;73.20;;;;;;6274379;22;20095;-65
2023/10/05 09:26:39;;;;;;;5.60;1.45;;;20.70;72.50;;;;;;6273419;22;20074;-65
2023/10/05 09:29:32;;;;;;;4.97;1.30;;;20.70;72.50;;;;;;6273554;22;20011;-65
2023/10/05 09:31:59;;;;;;;6.63;1.17;;;20.70;72.50;;;;;;6273902;22;20024;-65
2023/10/05 09:34:38;;;;;;;6.28;1.30;;;20.70;72.50;;;;;;6272972;22;20015;-66
2023/10/05 09:37:07;;;;;;;5.55;1.45;;;20.70;72.50;;;;;;6273751;22;20020;-65
2023/10/05 09:39:49;;;;;;;6.35;1.40;;;20.70;72.50;;;;;;6273547;22;20019;-65
2023/10/05 09:42:28;;;;;;;7.25;1.67;;;20.70;72.60;;;;;;6274670;22;20019;-64
2023/10/05 09:44:57;;;;;;;6.22;1.60;;;20.70;72.60;;;;;;6274460;22;20055;-65
2023/10/05 09:47:26;;;;;;;3.65;1.48;;;20.70;72.70;;;;;;6273759;22;20016;-64
2023/10/05 09:49:57;;;;;;;6.70;1.48;;;20.70;72.70;;;;;;6273312;22;20090;-64
2023/10/05 09:52:24;;;;;;;5.35;1.50;;;20.70;72.70;;;;;;6274058;22;20384;-64
2023/10/05 09:54:50;;;;;;;5.75;1.70;;;20.70;72.80;;;;;;6276036;22;20055;-65
2023/10/05 09:57:20;;;;;;;6.13;1.60;;;20.70;72.80;;;;;;6274316;22;20055;-65
2023/10/05 10:00:27;;;;;;;10.05;2.05;;;20.70;73.60;;;;;;6277882;22;20032;-65
2023/10/05 10:02:33;;;;;;;7.95;1.80;;;20.70;73.20;;;;;;6277862;22;20019;-65
2023/10/05 10:05:05;;;;;;;6.22;1.63;;;20.70;73.20;;;;;;6253456;22;20022;-65
2023/10/05 10:07:32;;;;;;;7.78;1.90;;;20.70;73.20;;;;;;6253822;22;20098;-65
2023/10/05 10:09:58;;;;;;;7.47;1.63;;;20.70;74.00;;;;;;6228377;22;20015;-65
2023/10/05 10:12:25;;;;;;;7.13;2.28;;;20.70;73.50;;;;;;6253433;22;20063;-65
2023/10/05 10:14:53;;;;;;;7.70;1.60;;;20.70;73.60;;;;;;6279303;22;20011;-65
2023/10/05 10:17:27;;;;;;;6.70;1.73;;;20.70;73.50;;;;;;6305092;22;20390;-65
2023/10/05 10:20:13;;;;;;;7.47;1.92;;;20.70;73.50;;;;;;6278785;22;20102;-65
2023/10/05 10:22:50;;;;;;;8.95;1.70;;;20.70;73.40;;;;;;6278013;22;20019;-63
2023/10/05 10:25:38;;;;;;;10.07;2.22;;;20.70;73.40;;;;;;6275925;22;20034;-64
2023/10/05 10:28:39;;;;;;;9.13;2.47;;;20.70;73.30;;;;;;6278116;22;20019;-63
2023/10/05 10:31:30;;;;;;;11.38;2.97;;;20.70;73.30;;;;;;6277008;22;20015;-63
2023/10/05 10:33:56;;;;;;;13.32;3.30;;;20.70;73.30;;;;;;6278637;22;20431;-66
2023/10/05 10:36:43;;;;;;;9.93;3.47;;;20.60;73.30;;;;;;6278758;22;20716;-65
2023/10/05 10:39:24;;;;;;;12.25;3.70;;;20.70;73.40;;;;;;6277500;22;20019;-66
2023/10/05 10:42:18;;;;;;;12.48;3.10;;;20.70;73.50;;;;;;6279157;22;20086;-65
2023/10/05 10:47:16;;;;;;;10.10;3.22;;;20.70;73.50;;;;;;6278447;22;20111;-64
2023/10/05 10:50:10;;;;;;;10.50;3.30;;;20.60;73.40;;;;;;6306057;22;20414;-64
2023/10/05 10:52:36;;;;;;;9.73;3.28;;;20.70;73.50;;;;;;6258604;22;20152;-65
2023/10/05 10:55:01;;;;;;;15.82;3.80;;;20.70;73.50;;;;;;6253950;22;20023;-65
2023/10/05 10:57:28;;;;;;;12.05;3.60;;;20.70;73.50;;;;;;6255000;22;20272;-64
2023/10/05 11:00:38;;;;;;;8.25;3.35;;;20.70;73.50;;;;;;6280716;22;20030;-62
2023/10/05 11:02:39;;;;;;;13.25;3.22;;;20.70;73.50;;;;;;6280688;22;20015;-63
2023/10/05 11:05:05;;;;;;;15.35;4.10;;;20.70;73.50;;;;;;6281018;22;20427;-63
2023/10/05 11:07:34;;;;;;;13.95;3.60;;;20.70;73.60;;;;;;6279556;22;20065;-63
2023/10/05 11:10:02;;;;;;;12.85;4.28;;;20.70;73.50;;;;;;6307387;22;20012;-63
2023/10/05 11:12:29;;;;;;;10.82;3.50;;;20.70;73.40;;;;;;6279210;22;20098;-62
2023/10/05 11:15:10;;;;;;;12.63;3.55;;;20.70;73.40;;;;;;6280223;22;20698;-63
2023/10/05 11:17:36;;;;;;;10.40;3.08;;;20.70;73.30;;;;;;6308318;22;20061;-63
2023/10/05 11:20:13;;;;;;;8.80;3.28;;;20.70;73.30;;;;;;6280098;22;20023;-63
2023/10/05 11:22:42;;;;;;;10.07;3.30;;;20.70;73.30;;;;;;6280822;22;20011;-62
2023/10/05 11:25:14;;;;;;;12.63;3.22;;;20.70;73.20;;;;;;6308088;22;20078;-63
2023/10/05 11:27:48;;;;;;;11.02;3.60;;;20.60;73.10;;;;;;6279999;22;20022;-63
2023/10/05 11:30:21;;;;;;;10.63;3.00;;;20.70;73.20;;;;;;6280509;22;20336;-63
2023/10/05 11:32:47;;;;;;;10.90;3.80;;;20.70;73.10;;;;;;6308209;22;20019;-63
2023/10/05 11:35:15;;;;;;;;;;;20.70;73.10;;;;;;6307448;22;20023;-64
2023/10/05 11:37:44;;;;;;;13.95;2.85;;;20.60;73.00;;;;;;6280417;22;19915;-64
2023/10/05 11:40:19;;;;;;;10.65;3.15;;;20.60;73.00;;;;;;6280502;22;20025;-64
2023/10/05 11:42:48;;;;;;;11.23;3.10;;;20.70;73.60;;;;;;6280158;22;20015;-64
2023/10/05 11:45:16;;;;;;;9.95;2.80;;;20.60;73.00;;;;;;6280473;22;20022;-64
2023/10/05 11:47:48;;;;;;;9.15;2.80;;;20.60;73.00;;;;;;6279786;22;20386;-63
2023/10/05 11:50:24;;;;;;;12.02;2.65;;;20.60;73.00;;;;;;6280274;22;20022;-64
2023/10/05 11:52:52;;;;;;;9.70;2.78;;;20.60;73.10;;;;;;6280817;22;20015;-64
2023/10/05 11:55:18;;;;;;;;;;;20.60;73.10;;;;;;6279416;22;20019;-63
2023/10/05 11:57:44;;;;;;;9.82;2.90;;;20.50;73.00;;;;;;6280704;22;19914;-64
2023/10/05 12:00:16;;;;;;;10.27;2.72;;;20.50;73.10;;;;;;6280103;22;20094;-64
2023/10/05 12:02:43;;;;;;;10.65;2.83;;;20.50;73.10;;;;;;6279459;22;20019;-64
2023/10/05 12:05:10;;;;;;;9.40;3.42;;;20.50;73.80;;;;;;6279888;22;20423;-64
2023/10/05 12:07:38;;;;;;;9.90;3.22;;;20.50;73.20;;;;;;6307790;22;20019;-64
2023/10/05 12:10:09;;;;;;;7.75;2.53;;;20.50;73.20;;;;;;6279529;22;20015;-63
2023/10/05 12:12:35;;;;;;;7.35;2.67;;;20.50;73.20;;;;;;6281169;22;20008;-64
2023/10/05 12:15:12;;;;;;;6.25;2.53;;;20.50;73.30;;;;;;6280485;22;20023;-64
2023/10/05 12:17:41;;;;;;;8.15;2.50;;;20.50;73.20;;;;;;6279464;22;20019;-64
2023/10/05 12:20:08;;;;;;;6.82;2.47;;;20.50;73.30;;;;;;6281518;22;20023;-64
2023/10/05 12:22:35;;;;;;;9.90;2.35;;;20.50;73.30;;;;;;6308152;22;20026;-63
2023/10/05 12:25:07;;;;;;;10.38;3.13;;;20.50;73.30;;;;;;6279535;22;20019;-63
2023/10/05 12:27:35;;;;;;;12.00;2.75;;;20.50;73.30;;;;;;6280274;22;20011;-63
2023/10/05 12:30:10;;;;;;;10.93;2.97;;;20.50;73.70;;;;;;6279486;22;20026;-64
2023/10/05 12:32:39;;;;;;;8.40;2.55;;;20.50;74.10;;;;;;6280343;22;20470;-64
2023/10/05 12:35:06;;;;;;;8.10;2.60;;;20.50;74.20;;;;;;6280266;22;20015;-62
2023/10/05 12:37:32;;;;;;;6.53;2.38;;;20.60;74.30;;;;;;6278994;22;20011;-64
2023/10/05 12:40:05;;;;;;;8.15;2.63;;;20.60;74.40;;;;;;6280371;22;20019;-64
2023/10/05 12:42:30;;;;;;;7.97;2.55;;;20.60;74.40;;;;;;6280026;22;20019;-63
2023/10/05 12:44:56;;;;;;;10.38;2.75;;;20.60;74.50;;;;;;6278928;22;20019;-63
2023/10/05 12:47:22;;;;;;;6.95;2.42;;;20.60;74.40;;;;;;6279945;22;20022;-63
2023/10/05 12:49:48;;;;;;;12.45;2.50;;;20.70;74.50;;;;;;6280248;22;20123;-63
2023/10/05 12:52:16;;;;;;;7.07;2.00;;;20.70;74.50;;;;;;6278697;22;20505;-65
2023/10/05 12:54:42;;;;;;;7.25;2.42;;;20.70;74.50;;;;;;6279942;22;20030;-65
2023/10/05 12:57:12;;;;;;;7.30;2.15;;;20.70;74.50;;;;;;6279894;22;20024;-65
2023/10/05 12:59:37;;;;;;;6.38;2.20;;;20.80;74.50;;;;;;6278987;22;20019;-66
2023/10/05 13:02:15;;;;;;;8.13;2.47;;;20.80;74.50;;;;;;6280166;22;20035;-65
2023/10/05 13:04:42;;;;;;;10.90;2.72;;;20.80;74.50;;;;;;6280240;22;20019;-66
2023/10/05 13:07:07;;;;;;;8.25;2.10;;;20.80;74.50;;;;;;6279013;22;20313;-65
2023/10/05 13:09:34;;;;;;;7.43;1.92;;;20.80;74.50;;;;;;6279857;22;20455;-66
2023/10/05 13:12:03;;;;;;;8.40;2.35;;;20.90;74.50;;;;;;6279015;22;20200;-66
2023/10/05 13:14:32;;;;;;;8.23;2.28;;;20.80;74.40;;;;;;6279536;22;20012;-66
2023/10/05 13:16:58;;;;;;;8.40;1.98;;;20.90;74.50;;;;;;6279401;22;20015;-66
2023/10/05 13:19:24;;;;;;;6.10;1.95;;;20.90;75.00;;;;;;6278611;22;20351;-66
2023/10/05 13:21:50;;;;;;;8.13;1.85;;;20.90;74.40;;;;;;6279875;22;20065;-65
2023/10/05 13:24:16;;;;;;;6.82;1.90;;;21.00;74.50;;;;;;6307200;22;20098;-65
2023/10/05 13:26:45;;;;;;;5.70;2.22;;;21.00;74.40;;;;;;6278967;22;20011;-66
2023/10/05 13:29:11;;;;;;;6.65;2.03;;;21.00;74.30;;;;;;6279430;22;20145;-66
2023/10/05 13:31:41;;;;;;;8.77;2.10;;;21.10;74.30;;;;;;6279680;22;20515;-66